Алыкель

Карта отелей и гостиниц, располагающихся рядом с аэропортом Алыкель :

Алыкель
Норильск
Красноярский край 69° 18' 39.6612" N, 87° 19' 55.0812" E
Код аэродрома ИКАО
UOOO
Код аэродрома RU
УООО
Координаты
N69.31102° E087.33197°
Превышение над уровнем моря
181
Основная полоса
01/19
Курс магнитный
014/194
Длина основной ВПП
3435
Ширина основной ВПП
45
Покрытие основной ВПП
Твёрдое
Освещение ВПП
Постоянное
Тип: 
Аэродром
Принадлежность: 
ГА
Статус: 
Действующий
Сайт: 
http://airport-norilsk.ru/
E-mail аэродрома: 
airport@airport-norilsk.ru
Страна: 
Россия
Регион: 
Красноярский край
Город: 
Норильск
Дополнительная информация: 
Эксплуатант: ООО «Аэропорт Норильск». Совместного базирования. Приравнен к условиям "Международного"(пересечение воздушных магистралей: транссибирской и трансатлантической). Грузонапряженность ВПП до 280 тонн. PCN 47/R/A/X/T. Военный индекс: XOOO / ЬООО. Расположен на Севере Красноярского края, на юге Таймырского полуострова в 52 км от промышленного и индустриального центра г. Норильск с его градообразующим стратегически важным предприятием ПАО «ГМК «Норильский Никель».
Схемы аэропортов: 
Погода: 

Авиационная погода в аэропорту Алыкель

Регион: 
Погода METAR: 
UOOO 281000Z 09008MPS 9999 DRSN NSC M14/M19 Q1026 R01/39//50 RMK QFE755/1006
Время наблюдения
2020-10-28T10:00:00Z
Температура C
-14.0
Точка росы
-19.0
Направление ветра
90
Скорость ветра (узлы)
16
Метео видимость
6.21
Явления погоды
DRSN
Условия полета
VFR
Аэропорт подробнее: 

Найти трансфер

С помощью этой формы Вы можете найти трансфер из аэропорта Алыкель в город, аэропорт или вокзал:

Карта места

Javascript is required to view this map.

Погода в аэропортах:

Авиационная погода в Куусамо

Регион: 
Погода METAR: 
EFKS 282220Z AUTO 19009KT 9999 -SHRA BKN007 OVC028 05/04 Q1000
Время наблюдения
2020-10-28T22:20:00Z
Температура C
5.0
Точка росы
4.0
Направление ветра
190
Скорость ветра (узлы)
9
Метео видимость
6.21
Явления погоды
-SHRA
Условия полета
IFR

Авиационная погода в аэропорту Имени Алексея Леонова

Регион: 
Погода METAR: 
UNEE 282200Z 25007MPS 4700 -SHSN FEW011 OVC020CB M05/M07 Q1017 R23/190055 NOSIG RMK QFE740
Время наблюдения
2020-10-28T22:00:00Z
Температура C
-5.0
Точка росы
-7.0
Направление ветра
250
Скорость ветра (узлы)
14
Метео видимость
2.92
Явления погоды
-SHSN
Условия полета
IFR
Аэропорт подробнее: 

Авиационная погода в Минске

Регион: 
Погода METAR: 
UMMS 282200Z 16004MPS 3700 BR FEW004 BKN043 11/11 Q1017 R13L/CLRD// R13R/////// NOSIG RMK QBB140
Время наблюдения
2020-10-28T22:00:00Z
Температура C
11.0
Точка росы
11.0
Направление ветра
160
Скорость ветра (узлы)
8
Метео видимость
2.3
Явления погоды
BR
Условия полета
IFR
Аэропорт подробнее: 

Авиационная погода в Миккели

Регион: 
Погода METAR: 
EFMI 282220Z AUTO 15006KT 090V190 9999 -RA SCT013 OVC038 08/07 Q1006
Время наблюдения
2020-10-28T22:20:00Z
Температура C
8.0
Точка росы
7.0
Направление ветра
150
Скорость ветра (узлы)
6
Метео видимость
6.21
Явления погоды
-RA
Условия полета
VFR